createdAt,value
2022-12-25T00:02:01.999Z,12.57
2022-12-25T00:04:29.751Z,13.02
2022-12-25T00:06:59.390Z,12.63
2022-12-25T00:09:28.466Z,12.15
2022-12-25T00:11:56.023Z,12.25
2022-12-25T00:14:23.581Z,12.68
2022-12-25T00:16:51.079Z,12.82
2022-12-25T00:19:19.573Z,12.70
2022-12-25T00:21:47.122Z,12.73
2022-12-25T00:24:14.704Z,12.55
2022-12-25T00:26:42.225Z,13.38
2022-12-25T00:29:13.236Z,13.95
2022-12-25T00:31:41.308Z,15.75
2022-12-25T00:34:08.911Z,13.32
2022-12-25T00:36:41.139Z,14.10
2022-12-25T00:39:09.847Z,13.75
2022-12-25T00:41:55.787Z,14.23
2022-12-25T00:44:23.435Z,13.70
2022-12-25T00:46:51.150Z,14.35
2022-12-25T00:49:18.700Z,13.93
2022-12-25T00:51:46.322Z,14.45
2022-12-25T00:54:14.333Z,13.75
2022-12-25T00:56:42.118Z,13.85
2022-12-25T00:59:09.925Z,13.93
2022-12-25T01:01:38.270Z,14.00
2022-12-25T01:04:07.032Z,13.77
2022-12-25T01:06:35.170Z,12.88
2022-12-25T01:09:21.458Z,12.73
2022-12-25T01:11:49.177Z,12.73
2022-12-25T01:14:17.084Z,12.18
2022-12-25T01:16:44.882Z,15.25
2022-12-25T01:19:12.561Z,11.52
2022-12-25T01:21:40.094Z,11.85
2022-12-25T01:24:08.620Z,13.68
2022-12-25T01:26:36.257Z,12.48
2022-12-25T01:29:03.816Z,13.73
2022-12-25T01:31:31.331Z,12.35
2022-12-25T01:33:59.004Z,12.80
2022-12-25T01:36:27.063Z,12.55
2022-12-25T01:38:55.089Z,12.80
2022-12-25T01:41:24.698Z,12.13
2022-12-25T01:46:29.354Z,11.82
2022-12-25T01:49:00.838Z,12.68
2022-12-25T01:51:41.414Z,12.38
2022-12-25T01:54:16.182Z,12.18
2022-12-25T01:56:46.069Z,12.50
2022-12-25T01:59:16.949Z,12.57
2022-12-25T02:01:44.887Z,12.27
2022-12-25T02:04:19.703Z,12.55
2022-12-25T02:06:50.032Z,12.85
2022-12-25T02:09:19.061Z,12.65
2022-12-25T02:11:59.090Z,13.47
2022-12-25T02:14:31.179Z,13.93
2022-12-25T02:17:19.092Z,13.30
2022-12-25T02:19:46.854Z,12.55
2022-12-25T02:22:44.949Z,14.02
2022-12-25T02:25:15.669Z,14.10
2022-12-25T02:28:20.026Z,13.43
2022-12-25T02:30:54.507Z,13.55
2022-12-25T02:33:51.090Z,13.93
2022-12-25T02:36:24.664Z,13.93
2022-12-25T02:39:14.544Z,13.43
2022-12-25T02:41:45.550Z,12.68
2022-12-25T02:44:37.371Z,13.00
2022-12-25T02:47:26.733Z,12.88
2022-12-25T02:50:15.766Z,13.02
2022-12-25T02:53:05.341Z,12.77
2022-12-25T02:55:56.509Z,11.90
2022-12-25T02:58:44.368Z,12.85
2022-12-25T03:01:36.836Z,12.80
2022-12-25T03:04:27.120Z,12.15
2022-12-25T03:07:03.439Z,13.23
2022-12-25T03:09:58.951Z,13.18
2022-12-25T03:12:41.900Z,14.82
2022-12-25T03:15:30.599Z,16.23
2022-12-25T03:18:03.555Z,16.55
2022-12-25T03:20:50.358Z,15.68
2022-12-25T03:23:44.343Z,16.10
2022-12-25T03:26:30.919Z,15.23
2022-12-25T03:28:58.602Z,14.05
2022-12-25T03:31:46.154Z,15.10
2022-12-25T03:34:54.030Z,13.63
2022-12-25T03:37:42.712Z,14.23
2022-12-25T03:40:28.916Z,14.40
2022-12-25T03:43:22.745Z,14.43
2022-12-25T03:46:15.737Z,15.30
2022-12-25T03:49:06.160Z,13.27
2022-12-25T03:51:56.141Z,13.63
2022-12-25T03:54:45.636Z,13.88
2022-12-25T03:57:33.366Z,13.70
2022-12-25T04:00:19.582Z,12.52
2022-12-25T04:03:06.007Z,14.27
2022-12-25T04:05:52.306Z,13.57
2022-12-25T04:08:38.857Z,13.60
2022-12-25T04:11:24.959Z,14.00
2022-12-25T04:14:11.226Z,13.93
2022-12-25T04:16:57.317Z,13.88
2022-12-25T04:19:43.390Z,13.20
2022-12-25T04:22:29.862Z,14.18
2022-12-25T04:25:15.938Z,16.23
2022-12-25T04:28:02.698Z,15.52
2022-12-25T04:30:49.206Z,15.07
2022-12-25T04:33:35.467Z,17.83
2022-12-25T04:36:12.664Z,16.98
2022-12-25T04:38:41.114Z,15.80
2022-12-25T04:41:11.156Z,16.48
2022-12-25T04:43:38.842Z,16.58
2022-12-25T04:46:06.949Z,16.65
2022-12-25T04:48:36.769Z,16.50
2022-12-25T04:51:16.064Z,16.63
2022-12-25T04:53:45.257Z,17.02
2022-12-25T04:56:13.329Z,16.25
2022-12-25T04:58:41.749Z,16.00
2022-12-25T05:01:10.613Z,16.02
2022-12-25T05:03:38.942Z,16.77
2022-12-25T05:06:07.093Z,16.13
2022-12-25T05:08:36.172Z,16.20
2022-12-25T05:11:12.697Z,16.52
2022-12-25T05:13:40.810Z,15.52
2022-12-25T05:16:12.838Z,16.42
2022-12-25T05:18:40.734Z,16.60
2022-12-25T05:21:10.677Z,14.95
2022-12-25T05:23:38.835Z,16.35
2022-12-25T05:26:07.578Z,15.63
2022-12-25T05:28:35.817Z,15.90
2022-12-25T05:31:03.484Z,15.95
2022-12-25T05:33:31.101Z,15.57
2022-12-25T05:35:59.918Z,16.52
2022-12-25T05:38:27.477Z,17.42
2022-12-25T05:40:55.598Z,18.88
2022-12-25T05:43:24.106Z,17.67
2022-12-25T05:45:51.639Z,16.98
2022-12-25T05:48:19.664Z,17.40
2022-12-25T05:50:47.514Z,17.35
2022-12-25T05:53:16.137Z,16.95
2022-12-25T05:55:44.707Z,17.48
2022-12-25T05:58:13.695Z,16.15
2022-12-25T06:00:43.803Z,15.55
2022-12-25T06:03:11.592Z,15.55
2022-12-25T06:05:39.893Z,15.32
2022-12-25T06:08:07.679Z,15.68
2022-12-25T06:10:36.395Z,16.13
2022-12-25T06:13:04.456Z,16.35
2022-12-25T06:15:32.311Z,14.90
2022-12-25T06:18:01.623Z,15.60
2022-12-25T06:20:29.466Z,15.63
2022-12-25T06:22:57.110Z,16.00
2022-12-25T06:25:24.719Z,15.02
2022-12-25T06:27:52.283Z,16.15
2022-12-25T06:30:20.033Z,16.35
2022-12-25T06:32:47.759Z,14.98
2022-12-25T06:35:15.576Z,16.48
2022-12-25T06:37:43.419Z,16.45
2022-12-25T06:40:11.440Z,16.95
2022-12-25T06:42:39.263Z,16.02
2022-12-25T06:45:07.329Z,17.15
2022-12-25T06:47:38.276Z,15.93
2022-12-25T06:52:35.987Z,16.05
2022-12-25T06:55:03.761Z,16.95
2022-12-25T06:57:31.620Z,16.95
2022-12-25T06:59:59.119Z,16.38
2022-12-25T07:02:27.510Z,18.67
2022-12-25T07:04:55.267Z,16.30
2022-12-25T07:07:25.848Z,16.15
2022-12-25T07:09:53.499Z,17.48
2022-12-25T07:12:25.896Z,17.17
2022-12-25T07:14:55.477Z,15.95
2022-12-25T07:17:24.016Z,16.92
2022-12-25T07:19:51.716Z,17.88
2022-12-25T07:22:19.315Z,15.23
2022-12-25T07:24:46.952Z,16.73
2022-12-25T07:27:14.483Z,14.88
2022-12-25T07:29:42.085Z,15.82
2022-12-25T07:32:09.692Z,15.38
2022-12-25T07:34:37.378Z,15.93
2022-12-25T07:37:05.030Z,15.70
2022-12-25T07:39:34.141Z,17.33
2022-12-25T07:42:01.611Z,16.67
2022-12-25T07:44:29.228Z,16.63
2022-12-25T07:46:56.697Z,17.38
2022-12-25T07:49:24.548Z,16.55
2022-12-25T07:51:52.187Z,16.80
2022-12-25T07:54:20.831Z,16.17
2022-12-25T07:56:52.636Z,16.58
2022-12-25T07:59:20.595Z,17.75
2022-12-25T08:01:50.605Z,17.85
2022-12-25T08:04:18.656Z,17.30
2022-12-25T08:06:46.341Z,16.83
2022-12-25T08:09:16.799Z,18.50
2022-12-25T08:11:48.098Z,16.95
2022-12-25T08:14:15.693Z,17.17
2022-12-25T08:16:43.348Z,16.85
2022-12-25T08:19:11.770Z,16.77
2022-12-25T08:21:39.353Z,15.75
2022-12-25T08:24:07.226Z,16.00
2022-12-25T08:26:35.713Z,15.50
2022-12-25T08:29:03.796Z,15.70
2022-12-25T08:31:33.459Z,14.40
2022-12-25T08:34:03.409Z,16.67
2022-12-25T08:36:31.043Z,17.23
2022-12-25T08:39:03.103Z,16.73
2022-12-25T08:41:32.524Z,16.15
2022-12-25T08:44:00.107Z,15.98
2022-12-25T08:46:27.711Z,17.10
2022-12-25T08:48:56.872Z,17.10
2022-12-25T08:51:26.013Z,17.15
2022-12-25T08:53:58.975Z,16.92
2022-12-25T08:56:27.021Z,16.35
2022-12-25T08:58:54.635Z,16.80
2022-12-25T09:01:22.460Z,17.52
2022-12-25T09:03:50.333Z,18.83
2022-12-25T09:06:18.064Z,18.05
2022-12-25T09:08:49.295Z,18.13
2022-12-25T09:11:19.839Z,19.15
2022-12-25T09:13:48.668Z,18.95
2022-12-25T09:16:20.387Z,19.48
2022-12-25T09:18:49.076Z,18.45
2022-12-25T09:21:17.694Z,18.98
2022-12-25T09:23:45.667Z,17.58
2022-12-25T09:26:16.848Z,19.33
2022-12-25T09:28:50.775Z,18.52
2022-12-25T09:31:20.643Z,20.55
2022-12-25T09:33:49.114Z,20.05
2022-12-25T09:36:16.733Z,19.60
2022-12-25T09:38:44.269Z,20.15
2022-12-25T09:41:33.564Z,18.45
2022-12-25T09:44:07.061Z,19.38
2022-12-25T09:47:05.489Z,21.90
2022-12-25T09:49:49.730Z,20.38
2022-12-25T09:52:24.041Z,19.70
2022-12-25T09:55:03.708Z,21.02
2022-12-25T09:57:33.011Z,20.13
2022-12-25T10:00:00.677Z,21.00
2022-12-25T10:02:51.032Z,20.38
2022-12-25T10:05:34.037Z,20.42
2022-12-25T10:08:42.381Z,20.27
2022-12-25T10:11:50.339Z,22.02
2022-12-25T10:14:29.937Z,21.02
2022-12-25T10:17:22.771Z,19.33
2022-12-25T10:19:59.936Z,21.73
2022-12-25T10:22:38.974Z,20.33
2022-12-25T10:25:15.196Z,22.55
2022-12-25T10:27:43.522Z,22.15
2022-12-25T10:30:20.313Z,21.50
2022-12-25T10:32:49.857Z,23.25
2022-12-25T10:35:20.842Z,22.67
2022-12-25T10:38:01.460Z,21.48
2022-12-25T10:40:39.825Z,21.45
2022-12-25T10:43:18.543Z,23.08
2022-12-25T10:45:48.678Z,26.13
2022-12-25T10:48:26.590Z,24.80
2022-12-25T10:50:55.387Z,21.75
2022-12-25T10:53:27.042Z,23.95
2022-12-25T10:55:55.506Z,25.92
2022-12-25T10:58:23.218Z,25.08
2022-12-25T11:01:00.200Z,26.25
2022-12-25T11:03:34.138Z,23.60
2022-12-25T11:06:03.014Z,23.60
2022-12-25T11:08:33.632Z,25.25
2022-12-25T11:11:09.025Z,24.98
2022-12-25T11:13:47.559Z,24.30
2022-12-25T11:16:26.082Z,24.13
2022-12-25T11:18:54.636Z,23.27
2022-12-25T11:21:29.485Z,24.58
2022-12-25T11:24:01.584Z,25.02
2022-12-25T11:26:32.176Z,22.75
2022-12-25T11:28:59.930Z,22.70
2022-12-25T11:31:41.210Z,22.73
2022-12-25T11:34:18.511Z,24.63
2022-12-25T11:36:51.854Z,26.25
2022-12-25T11:39:31.860Z,23.52
2022-12-25T11:42:04.839Z,23.38
2022-12-25T11:45:02.603Z,23.38
2022-12-25T11:47:39.616Z,23.77
2022-12-25T11:50:23.732Z,23.80
2022-12-25T11:52:53.347Z,22.52
2022-12-25T11:55:41.021Z,24.83
2022-12-25T11:58:20.735Z,23.33
2022-12-25T12:00:52.596Z,22.58
2022-12-25T12:03:25.872Z,23.33
2022-12-25T12:06:09.008Z,23.23
2022-12-25T12:08:38.734Z,19.98
2022-12-25T12:11:20.022Z,22.08
2022-12-25T12:14:01.613Z,20.85
2022-12-25T12:16:30.695Z,19.45
2022-12-25T12:18:58.348Z,21.67
2022-12-25T12:21:25.842Z,20.60
2022-12-25T12:24:09.790Z,20.65
2022-12-25T12:26:41.055Z,17.92
2022-12-25T12:29:27.563Z,19.67
2022-12-25T12:32:00.834Z,18.17
2022-12-25T12:34:31.186Z,20.52
2022-12-25T12:37:06.034Z,19.77
2022-12-25T12:39:37.509Z,17.75
2022-12-25T12:42:18.498Z,19.80
2022-12-25T12:44:48.645Z,17.35
2022-12-25T12:47:48.777Z,19.27
2022-12-25T12:50:42.790Z,16.65
2022-12-25T12:53:22.473Z,17.80
2022-12-25T12:58:37.692Z,18.77
2022-12-25T13:04:12.894Z,19.38
2022-12-25T13:06:49.031Z,21.15
2022-12-25T13:09:31.634Z,20.73
2022-12-25T13:12:06.654Z,22.55
2022-12-25T13:14:36.171Z,21.38
2022-12-25T13:17:08.965Z,20.27
2022-12-25T13:19:37.888Z,20.85
2022-12-25T13:22:07.330Z,21.63
2022-12-25T13:24:37.500Z,23.17
2022-12-25T13:27:26.563Z,22.60
2022-12-25T13:30:14.173Z,23.58
2022-12-25T13:32:43.453Z,22.65
2022-12-25T13:35:15.751Z,24.05
2022-12-25T13:37:44.590Z,24.00
2022-12-25T13:40:28.558Z,24.50
2022-12-25T13:43:00.940Z,22.65
2022-12-25T13:45:30.930Z,24.08
2022-12-25T13:48:09.616Z,23.02
2022-12-25T13:50:37.948Z,24.83
2022-12-25T13:53:16.303Z,23.90
2022-12-25T13:55:52.584Z,25.80
2022-12-25T13:58:31.545Z,25.27
2022-12-25T14:01:01.342Z,24.88
2022-12-25T14:06:21.916Z,23.73
2022-12-25T14:08:53.532Z,23.52
2022-12-25T14:11:23.547Z,23.92
2022-12-25T14:14:03.355Z,22.05
2022-12-25T15:27:53.965Z,22.05
2022-12-25T15:30:21.899Z,23.95
2022-12-25T15:32:49.619Z,24.00
2022-12-25T15:35:24.651Z,23.95
2022-12-25T15:37:52.865Z,24.77
2022-12-25T15:40:21.445Z,23.83
2022-12-25T15:42:50.356Z,24.75
2022-12-25T15:45:17.778Z,23.38
2022-12-25T15:47:45.419Z,24.33
2022-12-25T15:50:12.929Z,25.58
2022-12-25T15:52:40.393Z,23.98
2022-12-25T15:55:08.500Z,24.08
2022-12-25T15:57:37.887Z,24.98
2022-12-25T16:00:06.888Z,26.67
2022-12-25T16:02:39.372Z,23.25
2022-12-25T16:05:10.448Z,24.83
2022-12-25T16:07:39.132Z,25.17
2022-12-25T16:10:11.660Z,24.20
2022-12-25T16:12:39.265Z,24.90
2022-12-25T16:15:07.463Z,25.33
2022-12-25T16:17:35.281Z,26.10
2022-12-25T16:20:03.415Z,24.83
2022-12-25T16:22:32.026Z,23.70
2022-12-25T16:24:59.649Z,22.65
2022-12-25T16:27:27.520Z,24.40
2022-12-25T16:29:55.341Z,23.40
2022-12-25T16:32:22.857Z,23.27
2022-12-25T16:34:50.634Z,22.13
2022-12-25T16:37:18.346Z,22.10
2022-12-25T16:39:46.368Z,23.48
2022-12-25T16:42:14.025Z,23.73
2022-12-25T16:44:41.634Z,22.88
2022-12-25T16:47:09.137Z,24.63
2022-12-25T16:49:36.906Z,24.20
2022-12-25T16:52:04.987Z,24.00
2022-12-25T16:54:32.580Z,22.38
2022-12-25T16:57:00.341Z,24.02
2022-12-25T16:59:31.206Z,24.02
2022-12-25T17:01:59.407Z,23.75
2022-12-25T17:04:27.748Z,23.77
2022-12-25T17:06:55.466Z,24.20
2022-12-25T17:09:23.219Z,23.52
2022-12-25T17:11:50.870Z,22.90
2022-12-25T17:14:18.333Z,22.80
2022-12-25T17:16:46.067Z,23.55
2022-12-25T17:19:21.050Z,24.20
2022-12-25T17:21:48.842Z,23.50
2022-12-25T17:24:18.186Z,25.30
2022-12-25T17:26:45.697Z,24.20
2022-12-25T17:29:18.693Z,24.27
2022-12-25T17:31:49.577Z,24.58
2022-12-25T17:34:17.802Z,26.08
2022-12-25T17:36:45.591Z,23.02
2022-12-25T17:39:13.214Z,25.73
2022-12-25T17:41:41.044Z,25.88
2022-12-25T17:44:09.106Z,25.00
2022-12-25T17:46:36.755Z,26.02
2022-12-25T17:49:04.903Z,25.30
2022-12-25T17:51:32.976Z,25.02
2022-12-25T17:54:05.559Z,23.15
2022-12-25T17:56:33.924Z,23.67
2022-12-25T17:59:10.606Z,24.58
2022-12-25T18:01:40.097Z,22.17
2022-12-25T18:04:07.927Z,23.70
2022-12-25T18:06:36.542Z,22.77
2022-12-25T18:09:06.425Z,24.17
2022-12-25T18:11:37.579Z,24.27
2022-12-25T18:14:07.439Z,23.55
2022-12-25T18:19:04.694Z,21.58
2022-12-25T18:21:32.431Z,21.70
2022-12-25T18:24:01.712Z,23.17
2022-12-25T18:26:30.006Z,22.60
2022-12-25T18:28:58.017Z,22.85
2022-12-25T18:31:27.896Z,22.83
2022-12-25T18:36:26.133Z,24.07
2022-12-25T18:38:55.610Z,22.65
2022-12-25T18:41:23.546Z,23.95
2022-12-25T18:43:55.249Z,22.95
2022-12-25T18:46:26.324Z,23.35
2022-12-25T18:48:55.885Z,24.88
2022-12-25T18:51:24.215Z,23.48
2022-12-25T18:53:52.549Z,23.50
2022-12-25T18:56:20.481Z,22.27
2022-12-25T18:58:49.051Z,23.42
2022-12-25T19:01:23.832Z,21.50
2022-12-25T19:04:02.081Z,22.63
2022-12-25T19:10:42.082Z,22.70
2022-12-25T19:13:10.097Z,22.63
2022-12-25T19:15:43.529Z,21.25
2022-12-25T19:18:11.259Z,21.08
2022-12-25T19:20:41.499Z,21.17
2022-12-25T19:23:11.385Z,23.15
2022-12-25T19:25:48.614Z,21.55
2022-12-25T19:28:17.926Z,22.63
2022-12-25T19:30:45.547Z,22.13
2022-12-25T19:33:17.677Z,21.63
2022-12-25T19:35:47.481Z,21.80
2022-12-25T19:38:15.200Z,22.90
2022-12-25T19:41:00.621Z,21.23
2022-12-25T19:43:37.828Z,22.25
2022-12-25T19:46:14.550Z,22.52
2022-12-25T19:48:44.407Z,23.17
2022-12-25T19:51:21.059Z,22.88
2022-12-25T19:53:59.323Z,22.38
2022-12-25T19:56:32.414Z,24.02
2022-12-25T19:59:00.946Z,23.20
2022-12-25T20:01:29.433Z,23.65
2022-12-25T20:03:58.001Z,25.65
2022-12-25T20:06:33.324Z,24.48
2022-12-25T20:09:05.659Z,23.83
2022-12-25T20:11:35.363Z,23.20
2022-12-25T20:14:07.605Z,25.77
2022-12-25T20:16:41.743Z,24.77
2022-12-25T20:19:13.054Z,24.67
2022-12-25T20:21:41.211Z,26.35
2022-12-25T20:24:10.112Z,24.23
2022-12-25T20:26:39.375Z,24.52
2022-12-25T20:29:07.172Z,23.45
2022-12-25T20:31:35.978Z,24.10
2022-12-25T20:34:07.400Z,24.88
2022-12-25T20:36:37.779Z,25.58
2022-12-25T20:39:09.845Z,24.83
2022-12-25T20:41:39.727Z,24.27
2022-12-25T20:44:10.312Z,24.77
2022-12-25T20:46:39.176Z,25.98
2022-12-25T20:49:06.792Z,25.58
2022-12-25T20:51:34.567Z,25.67
2022-12-25T20:54:10.105Z,24.75
2022-12-25T20:56:38.792Z,25.92
2022-12-25T20:59:06.312Z,24.88
2022-12-25T21:01:34.260Z,25.60
2022-12-25T21:04:05.035Z,24.80
2022-12-25T21:06:32.797Z,24.00
2022-12-25T21:09:00.827Z,24.38
2022-12-25T21:11:31.404Z,23.83
2022-12-25T21:13:59.512Z,24.27
2022-12-25T21:16:28.412Z,23.77
2022-12-25T21:18:56.139Z,25.08
2022-12-25T21:21:26.202Z,24.20
2022-12-25T21:23:57.116Z,24.05
2022-12-25T21:26:30.348Z,23.30
2022-12-25T21:29:00.884Z,23.20
2022-12-25T21:31:52.287Z,21.90
2022-12-25T21:34:22.250Z,22.65
2022-12-25T21:36:55.177Z,23.50
2022-12-25T21:39:24.239Z,22.83
2022-12-25T21:41:58.272Z,21.10
2022-12-25T21:44:26.037Z,22.45
2022-12-25T21:46:56.725Z,22.25
2022-12-25T21:49:43.275Z,23.65
2022-12-25T21:52:11.053Z,22.83
2022-12-25T21:54:40.462Z,21.98
2022-12-25T22:05:07.066Z,21.92
2022-12-25T22:07:36.668Z,22.02
2022-12-25T22:10:04.673Z,24.60
2022-12-25T22:12:51.082Z,21.80
2022-12-25T22:15:18.737Z,21.83
2022-12-25T22:18:04.797Z,23.20
2022-12-25T22:20:37.578Z,22.50
2022-12-25T22:23:07.078Z,22.15
2022-12-25T22:25:34.957Z,22.90
2022-12-25T22:32:21.343Z,21.63
2022-12-25T22:34:51.074Z,22.55
2022-12-25T22:39:47.095Z,21.13
2022-12-25T22:42:14.587Z,21.98
2022-12-25T22:44:42.549Z,21.85
2022-12-25T22:47:12.661Z,21.35
2022-12-25T22:49:40.250Z,22.60
2022-12-25T22:52:10.034Z,21.38
2022-12-25T22:54:37.886Z,21.77
2022-12-25T22:57:05.682Z,21.77
2022-12-25T22:59:33.460Z,21.23
2022-12-25T23:02:02.054Z,20.77
2022-12-25T23:04:30.544Z,21.15
2022-12-25T23:06:58.415Z,22.77
2022-12-25T23:09:29.303Z,22.70
2022-12-25T23:11:58.718Z,22.17
2022-12-25T23:14:39.076Z,24.05
2022-12-25T23:17:31.856Z,23.23
2022-12-25T23:20:19.511Z,22.02
2022-12-25T23:23:05.685Z,23.33
2022-12-25T23:25:53.403Z,21.95
2022-12-25T23:28:39.763Z,22.60
2022-12-25T23:31:07.512Z,23.33
2022-12-25T23:33:36.161Z,25.55
2022-12-25T23:36:03.835Z,22.02
2022-12-25T23:38:31.362Z,23.65
2022-12-25T23:40:59.117Z,24.27
2022-12-25T23:43:26.792Z,24.00
2022-12-25T23:45:54.373Z,22.92
2022-12-25T23:48:21.902Z,23.60
2022-12-25T23:50:49.427Z,22.90
2022-12-25T23:53:17.038Z,24.33
2022-12-25T23:55:53.318Z,25.63
2022-12-25T23:58:26.385Z,24.02
